地図

経路データ

SID SEASON NUMBER BASIN SUBBASIN NAME ISO_TIME NATURE LAT LON WMO_WIND WMO_PRES WMO_AGENCY TRACK_TYPE DIST2LAND LANDFALL IFLAG USA_AGENCY USA_ATCF_ID USA_LAT USA_LON USA_RECORD USA_STATUS USA_WIND USA_PRES USA_SSHS USA_R34_NE USA_R34_SE USA_R34_SW USA_R34_NW USA_R50_NE USA_R50_SE USA_R50_SW USA_R50_NW USA_R64_NE USA_R64_SE USA_R64_SW USA_R64_NW USA_POCI USA_ROCI USA_RMW USA_EYE TOKYO_LAT TOKYO_LON TOKYO_GRADE TOKYO_WIND TOKYO_PRES TOKYO_R50_DIR TOKYO_R50_LONG TOKYO_R50_SHORT TOKYO_R30_DIR TOKYO_R30_LONG TOKYO_R30_SHORT TOKYO_LAND CMA_LAT CMA_LON CMA_CAT CMA_WIND CMA_PRES HKO_LAT HKO_LON HKO_CAT HKO_WIND HKO_PRES NEWDELHI_LAT NEWDELHI_LON NEWDELHI_GRADE NEWDELHI_WIND NEWDELHI_PRES NEWDELHI_CI NEWDELHI_DP NEWDELHI_POCI REUNION_LAT REUNION_LON REUNION_TYPE REUNION_WIND REUNION_PRES REUNION_TNUM REUNION_CI REUNION_RMW REUNION_R34_NE REUNION_R34_SE REUNION_R34_SW REUNION_R34_NW REUNION_R50_NE REUNION_R50_SE REUNION_R50_SW REUNION_R50_NW REUNION_R64_NE REUNION_R64_SE REUNION_R64_SW REUNION_R64_NW BOM_LAT BOM_LON BOM_TYPE BOM_WIND BOM_PRES BOM_TNUM BOM_CI BOM_RMW BOM_R34_NE BOM_R34_SE BOM_R34_SW BOM_R34_NW BOM_R50_NE BOM_R50_SE BOM_R50_SW BOM_R50_NW BOM_R64_NE BOM_R64_SE BOM_R64_SW BOM_R64_NW BOM_ROCI BOM_POCI BOM_EYE BOM_POS_METHOD BOM_PRES_METHOD NADI_LAT NADI_LON NADI_CAT NADI_WIND NADI_PRES WELLINGTON_LAT WELLINGTON_LON WELLINGTON_WIND WELLINGTON_PRES DS824_LAT DS824_LON DS824_STAGE DS824_WIND DS824_PRES TD9636_LAT TD9636_LON TD9636_STAGE TD9636_WIND TD9636_PRES TD9635_LAT TD9635_LON TD9635_WIND TD9635_PRES TD9635_ROCI NEUMANN_LAT NEUMANN_LON NEUMANN_CLASS NEUMANN_WIND NEUMANN_PRES MLC_LAT MLC_LON MLC_CLASS MLC_WIND MLC_PRES USA_GUST BOM_GUST BOM_GUST_PER REUNION_GUST REUNION_GUST_PER USA_SEAHGT USA_SEARAD_NE USA_SEARAD_SE USA_SEARAD_SW USA_SEARAD_NW STORM_SPEED STORM_DIR
1938314N09145 1938 65 WP MM NOT_NAMED 1938-11-10 10:00:00 NR 9.10000 144.900 main 1269 1269 __________O___ -1 9.10000 144.900 7 5 271
1938314N09145 1938 65 WP MM NOT_NAMED 1938-11-10 12:00:00 NR 9.10408 144.734 main 1272 1272 __________P___ -1 9.10408 144.734 7 5 272
1938314N09145 1938 65 WP MM NOT_NAMED 1938-11-10 15:00:00 NR 9.11496 144.442 main 1278 1278 __________P___ -1 9.11496 144.442 7 7 273
1938314N09145 1938 65 WP MM NOT_NAMED 1938-11-10 18:00:00 NR 9.13809 144.036 main 1287 1287 __________P___ -1 9.13809 144.036 7 10 274
1938314N09145 1938 65 WP MM NOT_NAMED 1938-11-10 21:00:00 NR 9.18047 143.448 main 1315 1315 __________P___ -1 9.18047 143.448 7 12 274
1938314N09145 1938 65 WP MM NOT_NAMED 1938-11-10 22:00:00 NR 9.20000 143.200 main 1321 1304 __________O___ -1 9.20000 143.200 7 16 275
1938314N09145 1938 65 WP MM NOT_NAMED 1938-11-11 00:00:00 NR 9.24876 142.618 main 1304 1278 __________P___ -1 9.24876 142.618 7 19 275
1938314N09145 1938 65 WP MM NOT_NAMED 1938-11-11 03:00:00 NR 9.35235 141.574 main 1288 1257 __________P___ -1 9.35235 141.574 7 22 277
1938314N09145 1938 65 WP MM NOT_NAMED 1938-11-11 06:00:00 NR 9.50315 140.404 main 1257 1231 __________P___ -1 9.50315 140.404 7 24 279
1938314N09145 1938 65 WP MM NOT_NAMED 1938-11-11 09:00:00 NR 9.71399 139.196 main 1231 1228 __________P___ -1 9.71399 139.196 7 24 281
1938314N09145 1938 65 WP MM NOT_NAMED 1938-11-11 10:00:00 NR 9.80000 138.800 main 1228 1222 __________O___ -1 9.80000 138.800 7 24 284
1938314N09145 1938 65 WP MM NOT_NAMED 1938-11-11 12:00:00 NR 10.0098 137.995 main 1228 1160 __________P___ -1 10.0098 137.995 7 25 286
1938314N09145 1938 65 WP MM NOT_NAMED 1938-11-11 15:00:00 NR 10.3816 136.792 main 1160 1054 __________P___ -1 10.3816 136.792 7 24 289
1938314N09145 1938 65 WP MM NOT_NAMED 1938-11-11 18:00:00 NR 10.7845 135.678 main 1054 965 __________P___ -1 10.7845 135.678 7 22 292
1938314N09145 1938 65 WP MM NOT_NAMED 1938-11-11 21:00:00 NR 11.1779 134.751 main 968 938 __________P___ -1 11.1779 134.751 7 19 294
1938314N09145 1938 65 WP MM NOT_NAMED 1938-11-11 22:00:00 NR 11.3000 134.500 main 938 902 __________O___ -1 11.3000 134.500 7 14 298
1938314N09145 1938 65 WP MM NOT_NAMED 1938-11-12 00:00:00 NR 11.5017 134.123 main 902 876 __________P___ -1 11.5017 134.123 7 10 303
1938314N09145 1938 65 WP MM NOT_NAMED 1938-11-12 03:00:00 NR 11.7806 133.759 main 877 856 __________P___ -1 11.7806 133.759 7 8 315
1938314N09145 1938 65 WP MM NOT_NAMED 1938-11-12 06:00:00 NR 12.0450 133.560 main 857 840 __________P___ -1 12.0450 133.560 7 6 329
1938314N09145 1938 65 WP MM NOT_NAMED 1938-11-12 09:00:00 NR 12.3094 133.439 main 840 840 __________P___ -1 12.3094 133.439 7 6 336
1938314N09145 1938 65 WP MM NOT_NAMED 1938-11-12 10:00:00 NR 12.4000 133.400 main 842 825 __________O___ -1 12.4000 133.400 7 7 327
1938314N09145 1938 65 WP MM NOT_NAMED 1938-11-12 12:00:00 NR 12.6021 133.247 main 825 812 __________P___ -1 12.6021 133.247 7 7 326
1938314N09145 1938 65 WP MM NOT_NAMED 1938-11-12 15:00:00 NR 12.9118 133.043 main 812 807 __________P___ -1 12.9118 133.043 7 7 329
1938314N09145 1938 65 WP MM NOT_NAMED 1938-11-12 18:00:00 NR 13.2182 132.872 main 810 794 __________P___ -1 13.2182 132.872 7 7 333
1938314N09145 1938 65 WP MM NOT_NAMED 1938-11-12 21:00:00 NR 13.5088 132.737 main 794 794 __________P___ -1 13.5088 132.737 7 6 336
1938314N09145 1938 65 WP MM NOT_NAMED 1938-11-12 22:00:00 NR 13.6000 132.700 main 796 787 __________O___ -1 13.6000 132.700 7 6 337
1938314N09145 1938 65 WP MM NOT_NAMED 1938-11-13 00:00:00 NR 13.7644 132.630 main 790 790 __________P___ -1 13.7644 132.630 7 5 341
1938314N09145 1938 65 WP MM NOT_NAMED 1938-11-13 03:00:00 NR 13.9922 132.557 main 795 784 __________P___ -1 13.9922 132.557 7 5 346
1938314N09145 1938 65 WP MM NOT_NAMED 1938-11-13 06:00:00 NR 14.2083 132.516 main 790 790 __________P___ -1 14.2083 132.516 7 4 352
1938314N09145 1938 65 WP MM NOT_NAMED 1938-11-13 09:00:00 NR 14.4253 132.500 main 796 796 __________P___ -1 14.4253 132.500 7 4 0
1938314N09145 1938 65 WP MM NOT_NAMED 1938-11-13 10:00:00 NR 14.5000 132.500 main 800 800 __________O___ -1 14.5000 132.500 7 5 357
1938314N09145 1938 65 WP MM NOT_NAMED 1938-11-13 12:00:00 NR 14.6557 132.489 main 807 807 __________P___ -1 14.6557 132.489 7 5 358
1938314N09145 1938 65 WP MM NOT_NAMED 1938-11-13 15:00:00 NR 14.8954 132.491 main 815 815 __________P___ -1 14.8954 132.491 7 5 4
1938314N09145 1938 65 WP MM NOT_NAMED 1938-11-13 18:00:00 NR 15.1454 132.519 main 823 827 __________P___ -1 15.1454 132.519 7 5 8
1938314N09145 1938 65 WP MM NOT_NAMED 1938-11-13 21:00:00 NR 15.4087 132.575 main 846 846 __________P___ -1 15.4087 132.575 7 5 12
1938314N09145 1938 65 WP MM NOT_NAMED 1938-11-13 22:00:00 NR 15.5000 132.600 main 851 851 __________O___ -1 15.5000 132.600 7 6 16
1938314N09145 1938 65 WP MM NOT_NAMED 1938-11-14 00:00:00 NR 15.6834 132.660 main 870 870 __________P___ -1 15.6834 132.660 7 6 20
1938314N09145 1938 65 WP MM NOT_NAMED 1938-11-14 03:00:00 NR 15.9709 132.776 main 895 895 __________P___ -1 15.9709 132.776 7 6 22
1938314N09145 1938 65 WP MM NOT_NAMED 1938-11-14 06:00:00 NR 16.2734 132.912 main 920 920 __________P___ -1 16.2734 132.912 7 7 23
1938314N09145 1938 65 WP MM NOT_NAMED 1938-11-14 09:00:00 NR 16.5908 133.053 main 955 955 __________P___ -1 16.5908 133.053 7 7 23
1938314N09145 1938 65 WP MM NOT_NAMED 1938-11-14 10:00:00 NR 16.7000 133.100 main 961 961 __________O___ -1 16.7000 133.100 7 7 19
1938314N09145 1938 65 WP MM NOT_NAMED 1938-11-14 12:00:00 NR 16.9271 133.176 main 981 981 __________P___ -1 16.9271 133.176 7 7 17
1938314N09145 1938 65 WP MM NOT_NAMED 1938-11-14 15:00:00 NR 17.2805 133.289 main 1014 1014 __________P___ -1 17.2805 133.289 7 8 17
1938314N09145 1938 65 WP MM NOT_NAMED 1938-11-14 18:00:00 NR 17.6381 133.410 main 1042 1048 __________P___ -1 17.6381 133.410 7 8 19
1938314N09145 1938 65 WP MM NOT_NAMED 1938-11-14 21:00:00 NR 17.9875 133.548 main 1075 1085 __________P___ -1 17.9875 133.548 7 7 21
1938314N09145 1938 65 WP MM NOT_NAMED 1938-11-14 22:00:00 NR 18.1000 133.600 main 1089 1089 __________O___ -1 18.1000 133.600 7 7 26
1938314N09145 1938 65 WP MM NOT_NAMED 1938-11-15 00:00:00 NR 18.3141 133.719 main 1108 1108 __________P___ -1 18.3141 133.719 7 7 30
1938314N09145 1938 65 WP MM NOT_NAMED 1938-11-15 03:00:00 NR 18.6226 133.916 main 1142 1142 __________P___ -1 18.6226 133.916 7 7 33
1938314N09145 1938 65 WP MM NOT_NAMED 1938-11-15 06:00:00 NR 18.9188 134.125 main 1176 1176 __________P___ -1 18.9188 134.125 7 7 34
1938314N09145 1938 65 WP MM NOT_NAMED 1938-11-15 09:00:00 NR 19.2058 134.333 main 1210 1210 __________P___ -1 19.2058 134.333 7 7 34
1938314N09145 1938 65 WP MM NOT_NAMED 1938-11-15 10:00:00 NR 19.3000 134.400 main 1224 1224 __________O___ -1 19.3000 134.400 7 7 32
1938314N09145 1938 65 WP MM NOT_NAMED 1938-11-15 12:00:00 NR 19.4811 134.517 main 1244 1244 __________P___ -1 19.4811 134.517 7 6 31
1938314N09145 1938 65 WP MM NOT_NAMED 1938-11-15 15:00:00 NR 19.7463 134.687 main 1273 1279 __________P___ -1 19.7463 134.687 7 6 31
1938314N09145 1938 65 WP MM NOT_NAMED 1938-11-15 18:00:00 NR 20.0149 134.857 main 1298 1270 __________P___ -1 20.0149 134.857 7 6 31
1938314N09145 1938 65 WP MM NOT_NAMED 1938-11-15 21:00:00 NR 20.2994 135.036 main 1270 1263 __________P___ -1 20.2994 135.036 7 7 31
1938314N09145 1938 65 WP MM NOT_NAMED 1938-11-15 22:00:00 NR 20.4000 135.100 main 1263 1245 __________O___ -1 20.4000 135.100 7 7 31
1938314N09145 1938 65 WP MM NOT_NAMED 1938-11-16 00:00:00 NR 20.6189 135.241 main 1245 1215 __________P___ -1 20.6189 135.241 7 8 31
1938314N09145 1938 65 WP MM NOT_NAMED 1938-11-16 03:00:00 NR 20.9661 135.466 main 1215 1192 __________P___ -1 20.9661 135.466 7 8 31
1938314N09145 1938 65 WP MM NOT_NAMED 1938-11-16 06:00:00 NR 21.3250 135.697 main 1192 1160 __________P___ -1 21.3250 135.697 7 8 31
1938314N09145 1938 65 WP MM NOT_NAMED 1938-11-16 09:00:00 NR 21.6830 135.926 main 1160 1154 __________P___ -1 21.6830 135.926 7 8 31
1938314N09145 1938 65 WP MM NOT_NAMED 1938-11-16 10:00:00 NR 21.8000 136.000 main 1154 1139 __________O___ -1 21.8000 136.000 7 8 30
1938314N09145 1938 65 WP MM NOT_NAMED 1938-11-16 12:00:00 NR 22.0285 136.143 main 1139 1109 __________P___ -1 22.0285 136.143 7 8 30
1938314N09145 1938 65 WP MM NOT_NAMED 1938-11-16 15:00:00 NR 22.3597 136.348 main 1109 1090 __________P___ -1 22.3597 136.348 7 8 30
1938314N09145 1938 65 WP MM NOT_NAMED 1938-11-16 18:00:00 NR 22.6806 136.545 main 1090 1072 __________P___ -1 22.6806 136.545 7 7 29
1938314N09145 1938 65 WP MM NOT_NAMED 1938-11-16 21:00:00 NR 22.9956 136.736 main 1072 1068 __________P___ -1 22.9956 136.736 7 7 29
1938314N09145 1938 65 WP MM NOT_NAMED 1938-11-16 22:00:00 NR 23.1000 136.800 main 1068 __________O___ -1 23.1000 136.800 7 7 28

デジタル台風データ・検索

IBTrACS Databaseについて

本データベースは、米国NOAAが公開する1842年以降の世界の熱帯低気圧のベストトラックデータアーカイブInternational Best Track Archive for Climate Stewardship (IBTrACS)を、ウェブで閲覧しやすい形式に変換したものです。

最終更新日:2021-11-26